sensor_id;sensor_type;location;lat;lon;timestamp;temperature;humidity
34550;DHT22;66080;52.078;5.626;2023-07-31T00:00:32;15.70;99.90
34550;DHT22;66080;52.078;5.626;2023-07-31T00:02:58;15.70;99.90
34550;DHT22;66080;52.078;5.626;2023-07-31T00:05:23;15.60;99.90
34550;DHT22;66080;52.078;5.626;2023-07-31T00:07:49;15.70;99.90
34550;DHT22;66080;52.078;5.626;2023-07-31T00:10:14;15.60;99.90
34550;DHT22;66080;52.078;5.626;2023-07-31T00:12:42;15.70;99.90
34550;DHT22;66080;52.078;5.626;2023-07-31T00:15:09;15.70;99.90
34550;DHT22;66080;52.078;5.626;2023-07-31T00:17:34;15.70;99.90
34550;DHT22;66080;52.078;5.626;2023-07-31T00:20:00;15.70;99.90
34550;DHT22;66080;52.078;5.626;2023-07-31T00:22:26;15.70;99.90
34550;DHT22;66080;52.078;5.626;2023-07-31T00:24:51;15.60;99.90
34550;DHT22;66080;52.078;5.626;2023-07-31T00:27:17;15.70;99.90
34550;DHT22;66080;52.078;5.626;2023-07-31T00:29:42;15.70;99.90
34550;DHT22;66080;52.078;5.626;2023-07-31T00:32:08;15.70;99.90
34550;DHT22;66080;52.078;5.626;2023-07-31T00:34:33;15.70;99.90
34550;DHT22;66080;52.078;5.626;2023-07-31T00:36:59;15.70;99.90
34550;DHT22;66080;52.078;5.626;2023-07-31T00:39:24;15.70;99.90
34550;DHT22;66080;52.078;5.626;2023-07-31T00:41:50;15.70;99.90
34550;DHT22;66080;52.078;5.626;2023-07-31T00:44:16;15.80;99.90
34550;DHT22;66080;52.078;5.626;2023-07-31T00:46:41;15.80;99.90
34550;DHT22;66080;52.078;5.626;2023-07-31T00:49:07;15.80;99.90
34550;DHT22;66080;52.078;5.626;2023-07-31T00:51:34;15.80;99.90
34550;DHT22;66080;52.078;5.626;2023-07-31T00:53:59;15.80;99.90
34550;DHT22;66080;52.078;5.626;2023-07-31T00:56:26;15.80;99.90
34550;DHT22;66080;52.078;5.626;2023-07-31T00:58:53;16.00;99.90
34550;DHT22;66080;52.078;5.626;2023-07-31T01:01:18;16.00;99.90
34550;DHT22;66080;52.078;5.626;2023-07-31T01:03:44;16.10;99.90
34550;DHT22;66080;52.078;5.626;2023-07-31T01:11:56;16.30;99.90
34550;DHT22;66080;52.078;5.626;2023-07-31T01:14:22;16.30;99.90
34550;DHT22;66080;52.078;5.626;2023-07-31T01:16:47;16.30;99.90
34550;DHT22;66080;52.078;5.626;2023-07-31T01:19:15;16.40;99.90
34550;DHT22;66080;52.078;5.626;2023-07-31T01:24:41;16.40;99.90
34550;DHT22;66080;52.078;5.626;2023-07-31T01:27:24;16.50;99.90
34550;DHT22;66080;52.078;5.626;2023-07-31T01:29:59;16.40;99.90
34550;DHT22;66080;52.078;5.626;2023-07-31T01:32:28;16.50;99.90
34550;DHT22;66080;52.078;5.626;2023-07-31T01:34:55;16.50;99.90
34550;DHT22;66080;52.078;5.626;2023-07-31T01:37:28;16.50;99.90
34550;DHT22;66080;52.078;5.626;2023-07-31T01:39:54;16.50;99.90
34550;DHT22;66080;52.078;5.626;2023-07-31T01:42:19;16.50;99.90
34550;DHT22;66080;52.078;5.626;2023-07-31T01:44:45;16.50;99.90
34550;DHT22;66080;52.078;5.626;2023-07-31T01:47:10;16.50;99.90
34550;DHT22;66080;52.078;5.626;2023-07-31T01:49:36;16.40;99.90
34550;DHT22;66080;52.078;5.626;2023-07-31T01:52:01;16.50;99.90
34550;DHT22;66080;52.078;5.626;2023-07-31T01:54:27;16.40;99.90
34550;DHT22;66080;52.078;5.626;2023-07-31T01:56:52;16.50;99.90
34550;DHT22;66080;52.078;5.626;2023-07-31T01:59:18;16.40;99.90
34550;DHT22;66080;52.078;5.626;2023-07-31T02:01:44;16.40;99.90
34550;DHT22;66080;52.078;5.626;2023-07-31T02:04:09;16.50;99.90
34550;DHT22;66080;52.078;5.626;2023-07-31T02:06:35;16.40;99.90
34550;DHT22;66080;52.078;5.626;2023-07-31T02:09:00;16.40;99.90
34550;DHT22;66080;52.078;5.626;2023-07-31T02:11:26;16.40;99.90
34550;DHT22;66080;52.078;5.626;2023-07-31T02:13:51;16.40;99.90
34550;DHT22;66080;52.078;5.626;2023-07-31T02:16:17;16.50;99.90
34550;DHT22;66080;52.078;5.626;2023-07-31T02:18:42;16.40;99.90
34550;DHT22;66080;52.078;5.626;2023-07-31T02:21:08;16.30;99.90
34550;DHT22;66080;52.078;5.626;2023-07-31T02:23:33;16.30;99.90
34550;DHT22;66080;52.078;5.626;2023-07-31T02:25:59;16.30;99.90
34550;DHT22;66080;52.078;5.626;2023-07-31T02:28:25;16.30;99.90
34550;DHT22;66080;52.078;5.626;2023-07-31T02:30:51;16.30;99.90
34550;DHT22;66080;52.078;5.626;2023-07-31T02:33:17;16.30;99.90
34550;DHT22;66080;52.078;5.626;2023-07-31T02:35:43;16.30;99.90
34550;DHT22;66080;52.078;5.626;2023-07-31T02:38:08;16.30;99.90
34550;DHT22;66080;52.078;5.626;2023-07-31T02:40:34;16.30;99.90
34550;DHT22;66080;52.078;5.626;2023-07-31T02:42:59;16.30;99.90
34550;DHT22;66080;52.078;5.626;2023-07-31T02:45:25;16.40;99.90
34550;DHT22;66080;52.078;5.626;2023-07-31T02:47:51;16.40;99.90
34550;DHT22;66080;52.078;5.626;2023-07-31T02:50:16;16.30;99.90
34550;DHT22;66080;52.078;5.626;2023-07-31T02:52:42;16.30;99.90
34550;DHT22;66080;52.078;5.626;2023-07-31T02:55:07;16.30;99.90
34550;DHT22;66080;52.078;5.626;2023-07-31T02:57:33;16.40;99.90
34550;DHT22;66080;52.078;5.626;2023-07-31T02:59:59;16.40;99.90
34550;DHT22;66080;52.078;5.626;2023-07-31T03:02:24;16.40;99.90
34550;DHT22;66080;52.078;5.626;2023-07-31T03:04:50;16.40;99.90
34550;DHT22;66080;52.078;5.626;2023-07-31T03:07:15;16.40;99.90
34550;DHT22;66080;52.078;5.626;2023-07-31T03:09:41;16.50;99.90
34550;DHT22;66080;52.078;5.626;2023-07-31T03:12:07;16.40;99.90
34550;DHT22;66080;52.078;5.626;2023-07-31T03:14:33;16.40;99.90
34550;DHT22;66080;52.078;5.626;2023-07-31T03:16:59;16.40;99.90
34550;DHT22;66080;52.078;5.626;2023-07-31T03:19:25;16.40;99.90
34550;DHT22;66080;52.078;5.626;2023-07-31T03:21:50;16.40;99.90
34550;DHT22;66080;52.078;5.626;2023-07-31T03:24:16;16.40;99.90
34550;DHT22;66080;52.078;5.626;2023-07-31T03:26:42;16.40;99.90
34550;DHT22;66080;52.078;5.626;2023-07-31T03:29:08;16.40;99.90
34550;DHT22;66080;52.078;5.626;2023-07-31T03:31:33;16.40;99.90
34550;DHT22;66080;52.078;5.626;2023-07-31T03:33:59;16.40;99.90
34550;DHT22;66080;52.078;5.626;2023-07-31T03:36:24;16.30;99.90
34550;DHT22;66080;52.078;5.626;2023-07-31T03:38:52;16.30;99.90
34550;DHT22;66080;52.078;5.626;2023-07-31T03:41:17;16.30;99.90
34550;DHT22;66080;52.078;5.626;2023-07-31T03:43:43;16.30;99.90
34550;DHT22;66080;52.078;5.626;2023-07-31T03:46:08;16.30;99.90
34550;DHT22;66080;52.078;5.626;2023-07-31T03:48:34;16.30;99.90
34550;DHT22;66080;52.078;5.626;2023-07-31T03:50:59;16.30;99.90
34550;DHT22;66080;52.078;5.626;2023-07-31T03:53:25;16.30;99.90
34550;DHT22;66080;52.078;5.626;2023-07-31T03:55:50;16.20;99.90
34550;DHT22;66080;52.078;5.626;2023-07-31T03:58:16;16.30;99.90
34550;DHT22;66080;52.078;5.626;2023-07-31T04:00:42;16.30;99.90
34550;DHT22;66080;52.078;5.626;2023-07-31T04:03:07;16.30;99.90
34550;DHT22;66080;52.078;5.626;2023-07-31T04:05:33;16.30;99.90
34550;DHT22;66080;52.078;5.626;2023-07-31T04:07:59;16.20;99.90
34550;DHT22;66080;52.078;5.626;2023-07-31T04:10:24;16.30;99.90
34550;DHT22;66080;52.078;5.626;2023-07-31T04:12:50;16.30;99.90
34550;DHT22;66080;52.078;5.626;2023-07-31T04:15:15;16.30;99.90
34550;DHT22;66080;52.078;5.626;2023-07-31T04:17:41;16.30;99.90
34550;DHT22;66080;52.078;5.626;2023-07-31T04:20:07;16.30;99.90
34550;DHT22;66080;52.078;5.626;2023-07-31T04:22:33;16.30;99.90
34550;DHT22;66080;52.078;5.626;2023-07-31T04:24:58;16.20;99.90
34550;DHT22;66080;52.078;5.626;2023-07-31T04:27:24;16.20;99.90
34550;DHT22;66080;52.078;5.626;2023-07-31T04:29:50;16.20;99.90
34550;DHT22;66080;52.078;5.626;2023-07-31T04:32:16;16.10;99.90
34550;DHT22;66080;52.078;5.626;2023-07-31T04:34:42;16.10;99.90
34550;DHT22;66080;52.078;5.626;2023-07-31T04:37:08;16.20;99.90
34550;DHT22;66080;52.078;5.626;2023-07-31T04:39:33;16.20;99.90
34550;DHT22;66080;52.078;5.626;2023-07-31T04:41:59;16.20;99.90
34550;DHT22;66080;52.078;5.626;2023-07-31T04:44:25;16.10;99.90
34550;DHT22;66080;52.078;5.626;2023-07-31T04:46:50;16.10;99.90
34550;DHT22;66080;52.078;5.626;2023-07-31T04:49:16;16.10;99.90
34550;DHT22;66080;52.078;5.626;2023-07-31T04:51:41;16.20;99.90
34550;DHT22;66080;52.078;5.626;2023-07-31T04:54:07;16.10;99.90
34550;DHT22;66080;52.078;5.626;2023-07-31T04:56:32;16.10;99.90
34550;DHT22;66080;52.078;5.626;2023-07-31T04:58:58;16.10;99.90
34550;DHT22;66080;52.078;5.626;2023-07-31T05:01:23;16.20;99.90
34550;DHT22;66080;52.078;5.626;2023-07-31T05:03:49;16.20;99.90
34550;DHT22;66080;52.078;5.626;2023-07-31T05:06:15;16.20;99.90
34550;DHT22;66080;52.078;5.626;2023-07-31T05:08:40;16.10;99.90
34550;DHT22;66080;52.078;5.626;2023-07-31T05:11:06;16.20;99.90
34550;DHT22;66080;52.078;5.626;2023-07-31T05:13:31;16.10;99.90
34550;DHT22;66080;52.078;5.626;2023-07-31T05:15:57;16.10;99.90
34550;DHT22;66080;52.078;5.626;2023-07-31T05:18:23;16.10;99.90
34550;DHT22;66080;52.078;5.626;2023-07-31T05:20:48;16.20;99.90
34550;DHT22;66080;52.078;5.626;2023-07-31T05:23:14;16.10;99.90
34550;DHT22;66080;52.078;5.626;2023-07-31T05:25:39;16.00;99.90
34550;DHT22;66080;52.078;5.626;2023-07-31T05:28:05;16.00;99.90
34550;DHT22;66080;52.078;5.626;2023-07-31T05:30:31;16.10;99.90
34550;DHT22;66080;52.078;5.626;2023-07-31T05:32:56;16.00;99.90
34550;DHT22;66080;52.078;5.626;2023-07-31T05:35:22;16.00;99.90
34550;DHT22;66080;52.078;5.626;2023-07-31T05:37:48;16.00;99.90
34550;DHT22;66080;52.078;5.626;2023-07-31T05:40:14;15.90;99.90
34550;DHT22;66080;52.078;5.626;2023-07-31T05:42:39;15.90;99.90
34550;DHT22;66080;52.078;5.626;2023-07-31T05:45:06;15.90;99.90
34550;DHT22;66080;52.078;5.626;2023-07-31T05:47:32;15.90;99.90
34550;DHT22;66080;52.078;5.626;2023-07-31T05:49:57;15.80;99.90
34550;DHT22;66080;52.078;5.626;2023-07-31T05:52:23;15.80;99.90
34550;DHT22;66080;52.078;5.626;2023-07-31T05:54:48;15.80;99.90
34550;DHT22;66080;52.078;5.626;2023-07-31T05:57:14;15.90;99.90
34550;DHT22;66080;52.078;5.626;2023-07-31T05:59:39;15.80;99.90
34550;DHT22;66080;52.078;5.626;2023-07-31T06:02:06;15.90;99.90
34550;DHT22;66080;52.078;5.626;2023-07-31T06:04:31;15.90;99.90
34550;DHT22;66080;52.078;5.626;2023-07-31T06:06:57;15.90;99.90
34550;DHT22;66080;52.078;5.626;2023-07-31T06:09:22;15.90;99.90
34550;DHT22;66080;52.078;5.626;2023-07-31T06:11:48;16.00;99.90
34550;DHT22;66080;52.078;5.626;2023-07-31T06:14:14;16.00;99.90
34550;DHT22;66080;52.078;5.626;2023-07-31T06:16:40;16.10;99.90
34550;DHT22;66080;52.078;5.626;2023-07-31T06:19:05;16.00;99.90
34550;DHT22;66080;52.078;5.626;2023-07-31T06:21:32;16.10;99.90
34550;DHT22;66080;52.078;5.626;2023-07-31T06:23:58;16.20;99.90
34550;DHT22;66080;52.078;5.626;2023-07-31T06:26:23;16.20;99.90
34550;DHT22;66080;52.078;5.626;2023-07-31T06:28:49;16.20;99.90
34550;DHT22;66080;52.078;5.626;2023-07-31T06:31:15;16.10;99.90
34550;DHT22;66080;52.078;5.626;2023-07-31T06:33:40;16.10;99.90
34550;DHT22;66080;52.078;5.626;2023-07-31T06:36:06;16.00;99.90
34550;DHT22;66080;52.078;5.626;2023-07-31T06:38:32;16.00;99.90
34550;DHT22;66080;52.078;5.626;2023-07-31T06:40:57;16.00;99.90
34550;DHT22;66080;52.078;5.626;2023-07-31T06:43:23;16.20;99.90
34550;DHT22;66080;52.078;5.626;2023-07-31T06:45:48;16.30;99.90
34550;DHT22;66080;52.078;5.626;2023-07-31T06:48:16;16.20;99.90
34550;DHT22;66080;52.078;5.626;2023-07-31T06:50:42;16.20;99.90
34550;DHT22;66080;52.078;5.626;2023-07-31T06:53:07;16.20;99.90
34550;DHT22;66080;52.078;5.626;2023-07-31T06:55:33;16.30;99.90
34550;DHT22;66080;52.078;5.626;2023-07-31T06:57:59;16.30;99.90
34550;DHT22;66080;52.078;5.626;2023-07-31T07:00:24;16.40;99.90
34550;DHT22;66080;52.078;5.626;2023-07-31T07:02:50;16.30;99.90
34550;DHT22;66080;52.078;5.626;2023-07-31T07:05:16;16.30;99.90
34550;DHT22;66080;52.078;5.626;2023-07-31T07:07:42;16.40;99.90
34550;DHT22;66080;52.078;5.626;2023-07-31T07:10:08;16.40;99.90
34550;DHT22;66080;52.078;5.626;2023-07-31T07:12:34;16.40;99.90
34550;DHT22;66080;52.078;5.626;2023-07-31T07:15:01;16.50;99.90
34550;DHT22;66080;52.078;5.626;2023-07-31T07:17:28;16.50;99.90
34550;DHT22;66080;52.078;5.626;2023-07-31T07:19:56;16.50;99.90
34550;DHT22;66080;52.078;5.626;2023-07-31T07:22:22;16.60;99.90
34550;DHT22;66080;52.078;5.626;2023-07-31T07:24:48;16.60;99.90
34550;DHT22;66080;52.078;5.626;2023-07-31T07:27:13;16.50;99.90
34550;DHT22;66080;52.078;5.626;2023-07-31T07:29:40;16.50;99.90
34550;DHT22;66080;52.078;5.626;2023-07-31T07:32:05;16.50;99.90
34550;DHT22;66080;52.078;5.626;2023-07-31T07:34:31;16.50;99.90
34550;DHT22;66080;52.078;5.626;2023-07-31T07:36:57;16.60;99.90
34550;DHT22;66080;52.078;5.626;2023-07-31T07:39:22;16.60;99.90
34550;DHT22;66080;52.078;5.626;2023-07-31T07:41:48;16.60;99.90
34550;DHT22;66080;52.078;5.626;2023-07-31T07:44:14;16.60;99.90
34550;DHT22;66080;52.078;5.626;2023-07-31T07:46:41;16.70;99.90
34550;DHT22;66080;52.078;5.626;2023-07-31T07:49:06;16.60;99.90
34550;DHT22;66080;52.078;5.626;2023-07-31T07:51:32;16.60;99.90
34550;DHT22;66080;52.078;5.626;2023-07-31T07:53:58;16.60;99.90
34550;DHT22;66080;52.078;5.626;2023-07-31T07:56:25;16.70;99.90
34550;DHT22;66080;52.078;5.626;2023-07-31T07:58:51;16.60;99.90
34550;DHT22;66080;52.078;5.626;2023-07-31T08:01:17;16.60;99.90
34550;DHT22;66080;52.078;5.626;2023-07-31T08:03:42;16.60;99.90
34550;DHT22;66080;52.078;5.626;2023-07-31T08:06:09;16.70;99.90
34550;DHT22;66080;52.078;5.626;2023-07-31T08:08:35;16.70;99.90
34550;DHT22;66080;52.078;5.626;2023-07-31T08:11:01;16.70;99.90
34550;DHT22;66080;52.078;5.626;2023-07-31T08:13:27;16.70;99.90
34550;DHT22;66080;52.078;5.626;2023-07-31T08:15:52;16.80;99.90
34550;DHT22;66080;52.078;5.626;2023-07-31T08:18:18;16.80;99.90
34550;DHT22;66080;52.078;5.626;2023-07-31T08:20:44;16.80;99.90
34550;DHT22;66080;52.078;5.626;2023-07-31T08:23:10;16.90;99.90
34550;DHT22;66080;52.078;5.626;2023-07-31T08:25:36;16.80;99.90
34550;DHT22;66080;52.078;5.626;2023-07-31T08:28:02;16.90;99.90
34550;DHT22;66080;52.078;5.626;2023-07-31T08:30:28;16.90;99.90
34550;DHT22;66080;52.078;5.626;2023-07-31T08:32:53;17.00;99.90
34550;DHT22;66080;52.078;5.626;2023-07-31T08:35:19;17.00;99.90
34550;DHT22;66080;52.078;5.626;2023-07-31T08:37:44;17.00;99.90
34550;DHT22;66080;52.078;5.626;2023-07-31T08:40:10;17.00;99.90
34550;DHT22;66080;52.078;5.626;2023-07-31T08:42:50;17.10;99.90
34550;DHT22;66080;52.078;5.626;2023-07-31T08:45:17;17.20;99.90
34550;DHT22;66080;52.078;5.626;2023-07-31T08:47:46;17.30;99.90
34550;DHT22;66080;52.078;5.626;2023-07-31T08:50:13;17.20;99.90
34550;DHT22;66080;52.078;5.626;2023-07-31T08:52:39;17.30;99.90
34550;DHT22;66080;52.078;5.626;2023-07-31T08:55:06;17.30;99.90
34550;DHT22;66080;52.078;5.626;2023-07-31T08:57:35;17.30;99.90
34550;DHT22;66080;52.078;5.626;2023-07-31T09:00:02;17.30;99.90
34550;DHT22;66080;52.078;5.626;2023-07-31T09:02:34;17.30;99.90
34550;DHT22;66080;52.078;5.626;2023-07-31T09:05:03;17.30;99.90
34550;DHT22;66080;52.078;5.626;2023-07-31T09:07:31;17.30;99.90
34550;DHT22;66080;52.078;5.626;2023-07-31T09:09:59;17.30;99.90
34550;DHT22;66080;52.078;5.626;2023-07-31T09:12:25;17.30;99.90
34550;DHT22;66080;52.078;5.626;2023-07-31T09:14:51;17.40;99.90
34550;DHT22;66080;52.078;5.626;2023-07-31T09:17:31;17.40;99.90
34550;DHT22;66080;52.078;5.626;2023-07-31T09:19:57;17.30;99.90
34550;DHT22;66080;52.078;5.626;2023-07-31T09:22:34;17.30;99.90
34550;DHT22;66080;52.078;5.626;2023-07-31T09:25:29;17.40;99.90
34550;DHT22;66080;52.078;5.626;2023-07-31T09:27:58;17.30;99.90
34550;DHT22;66080;52.078;5.626;2023-07-31T09:30:24;17.20;99.90
34550;DHT22;66080;52.078;5.626;2023-07-31T09:32:50;17.30;99.90
34550;DHT22;66080;52.078;5.626;2023-07-31T09:35:22;17.20;99.90
34550;DHT22;66080;52.078;5.626;2023-07-31T09:37:52;17.20;99.90
34550;DHT22;66080;52.078;5.626;2023-07-31T09:40:35;17.30;99.90
34550;DHT22;66080;52.078;5.626;2023-07-31T09:43:03;17.20;99.90
34550;DHT22;66080;52.078;5.626;2023-07-31T09:45:33;17.20;99.90
34550;DHT22;66080;52.078;5.626;2023-07-31T09:47:58;17.30;99.90
34550;DHT22;66080;52.078;5.626;2023-07-31T09:50:24;17.40;99.90
34550;DHT22;66080;52.078;5.626;2023-07-31T09:52:51;17.40;99.90
34550;DHT22;66080;52.078;5.626;2023-07-31T09:55:18;17.40;99.90
34550;DHT22;66080;52.078;5.626;2023-07-31T09:57:48;17.50;99.90
34550;DHT22;66080;52.078;5.626;2023-07-31T10:00:16;17.50;99.90
34550;DHT22;66080;52.078;5.626;2023-07-31T10:02:45;17.40;99.90
34550;DHT22;66080;52.078;5.626;2023-07-31T10:05:13;17.50;99.90
34550;DHT22;66080;52.078;5.626;2023-07-31T10:07:42;17.60;99.90
34550;DHT22;66080;52.078;5.626;2023-07-31T10:10:08;17.50;99.90
34550;DHT22;66080;52.078;5.626;2023-07-31T10:12:37;17.50;99.90
34550;DHT22;66080;52.078;5.626;2023-07-31T10:15:04;17.60;99.90
34550;DHT22;66080;52.078;5.626;2023-07-31T10:17:30;17.60;99.90
34550;DHT22;66080;52.078;5.626;2023-07-31T10:19:58;17.60;99.90
34550;DHT22;66080;52.078;5.626;2023-07-31T10:22:27;17.70;99.90
34550;DHT22;66080;52.078;5.626;2023-07-31T10:24:55;17.70;99.90
34550;DHT22;66080;52.078;5.626;2023-07-31T10:27:22;17.80;99.90
34550;DHT22;66080;52.078;5.626;2023-07-31T10:29:48;17.80;99.90
34550;DHT22;66080;52.078;5.626;2023-07-31T10:32:15;17.90;99.90
34550;DHT22;66080;52.078;5.626;2023-07-31T10:34:42;17.90;99.90
34550;DHT22;66080;52.078;5.626;2023-07-31T10:37:36;17.90;99.90
34550;DHT22;66080;52.078;5.626;2023-07-31T10:40:02;18.00;99.90
34550;DHT22;66080;52.078;5.626;2023-07-31T10:42:51;17.90;99.90
34550;DHT22;66080;52.078;5.626;2023-07-31T10:45:36;17.90;99.90
34550;DHT22;66080;52.078;5.626;2023-07-31T10:48:15;17.90;99.90
34550;DHT22;66080;52.078;5.626;2023-07-31T10:50:48;18.00;99.90
34550;DHT22;66080;52.078;5.626;2023-07-31T10:53:25;18.00;99.90
34550;DHT22;66080;52.078;5.626;2023-07-31T10:55:51;18.20;99.90
34550;DHT22;66080;52.078;5.626;2023-07-31T10:58:19;18.10;99.90
34550;DHT22;66080;52.078;5.626;2023-07-31T11:00:45;18.20;99.90
34550;DHT22;66080;52.078;5.626;2023-07-31T11:03:14;18.20;99.90
34550;DHT22;66080;52.078;5.626;2023-07-31T11:06:06;18.20;99.90
34550;DHT22;66080;52.078;5.626;2023-07-31T11:08:33;18.20;99.90
34550;DHT22;66080;52.078;5.626;2023-07-31T11:13:40;18.30;99.90
34550;DHT22;66080;52.078;5.626;2023-07-31T11:16:06;18.40;99.90
34550;DHT22;66080;52.078;5.626;2023-07-31T11:18:32;18.30;99.90
34550;DHT22;66080;52.078;5.626;2023-07-31T11:20:58;18.30;99.90
34550;DHT22;66080;52.078;5.626;2023-07-31T11:23:23;18.30;99.90
34550;DHT22;66080;52.078;5.626;2023-07-31T11:25:50;18.20;99.90
34550;DHT22;66080;52.078;5.626;2023-07-31T11:28:16;18.20;99.90
34550;DHT22;66080;52.078;5.626;2023-07-31T11:30:43;18.20;99.90
34550;DHT22;66080;52.078;5.626;2023-07-31T11:33:11;18.20;99.90
34550;DHT22;66080;52.078;5.626;2023-07-31T11:35:46;18.10;99.90
34550;DHT22;66080;52.078;5.626;2023-07-31T11:38:14;18.10;99.90
34550;DHT22;66080;52.078;5.626;2023-07-31T11:40:46;18.00;99.90
34550;DHT22;66080;52.078;5.626;2023-07-31T11:43:11;18.10;99.90
34550;DHT22;66080;52.078;5.626;2023-07-31T11:45:41;18.10;99.90
34550;DHT22;66080;52.078;5.626;2023-07-31T11:48:07;18.20;99.90
34550;DHT22;66080;52.078;5.626;2023-07-31T11:50:33;18.30;99.90
34550;DHT22;66080;52.078;5.626;2023-07-31T11:53:04;18.30;99.90
34550;DHT22;66080;52.078;5.626;2023-07-31T11:55:32;18.40;99.90
34550;DHT22;66080;52.078;5.626;2023-07-31T11:57:59;18.40;99.90
34550;DHT22;66080;52.078;5.626;2023-07-31T12:00:25;18.40;99.90
34550;DHT22;66080;52.078;5.626;2023-07-31T12:02:51;18.50;99.90
34550;DHT22;66080;52.078;5.626;2023-07-31T12:05:18;18.50;99.90
34550;DHT22;66080;52.078;5.626;2023-07-31T12:07:51;18.60;99.90
34550;DHT22;66080;52.078;5.626;2023-07-31T12:10:31;18.60;99.90
34550;DHT22;66080;52.078;5.626;2023-07-31T12:15:39;18.70;99.90
34550;DHT22;66080;52.078;5.626;2023-07-31T12:18:21;18.70;99.90
34550;DHT22;66080;52.078;5.626;2023-07-31T12:20:49;18.70;99.90
34550;DHT22;66080;52.078;5.626;2023-07-31T12:23:25;18.60;99.90
34550;DHT22;66080;52.078;5.626;2023-07-31T12:26:04;18.60;99.90
34550;DHT22;66080;52.078;5.626;2023-07-31T12:28:30;18.80;99.90
34550;DHT22;66080;52.078;5.626;2023-07-31T12:31:00;18.80;99.90
34550;DHT22;66080;52.078;5.626;2023-07-31T12:33:31;18.80;99.90
34550;DHT22;66080;52.078;5.626;2023-07-31T12:35:56;18.70;99.90
34550;DHT22;66080;52.078;5.626;2023-07-31T12:38:22;18.60;99.90
34550;DHT22;66080;52.078;5.626;2023-07-31T12:40:48;18.50;99.90
34550;DHT22;66080;52.078;5.626;2023-07-31T12:43:13;18.40;99.90
34550;DHT22;66080;52.078;5.626;2023-07-31T12:45:39;18.30;99.90
34550;DHT22;66080;52.078;5.626;2023-07-31T12:48:04;18.40;99.90
34550;DHT22;66080;52.078;5.626;2023-07-31T12:50:30;18.50;99.90
34550;DHT22;66080;52.078;5.626;2023-07-31T12:52:56;18.50;99.90
34550;DHT22;66080;52.078;5.626;2023-07-31T12:55:22;18.50;99.90
34550;DHT22;66080;52.078;5.626;2023-07-31T12:57:48;18.50;99.90
34550;DHT22;66080;52.078;5.626;2023-07-31T13:00:14;18.60;99.90
34550;DHT22;66080;52.078;5.626;2023-07-31T13:02:40;18.80;99.90
34550;DHT22;66080;52.078;5.626;2023-07-31T13:05:06;18.70;99.90
34550;DHT22;66080;52.078;5.626;2023-07-31T13:07:31;18.80;99.90
34550;DHT22;66080;52.078;5.626;2023-07-31T13:09:57;18.80;99.90
34550;DHT22;66080;52.078;5.626;2023-07-31T13:12:23;18.90;99.90
34550;DHT22;66080;52.078;5.626;2023-07-31T13:14:48;19.00;99.90
34550;DHT22;66080;52.078;5.626;2023-07-31T13:17:14;19.10;99.90
34550;DHT22;66080;52.078;5.626;2023-07-31T13:19:39;19.10;99.90
34550;DHT22;66080;52.078;5.626;2023-07-31T13:22:05;19.00;99.90
34550;DHT22;66080;52.078;5.626;2023-07-31T13:24:30;19.00;99.90
34550;DHT22;66080;52.078;5.626;2023-07-31T13:26:57;19.20;99.90
34550;DHT22;66080;52.078;5.626;2023-07-31T13:29:22;19.10;99.90
34550;DHT22;66080;52.078;5.626;2023-07-31T13:31:49;19.10;99.90
34550;DHT22;66080;52.078;5.626;2023-07-31T13:34:14;19.20;99.90
34550;DHT22;66080;52.078;5.626;2023-07-31T13:36:40;19.30;99.90
34550;DHT22;66080;52.078;5.626;2023-07-31T13:39:07;19.30;99.90
34550;DHT22;66080;52.078;5.626;2023-07-31T13:41:32;19.20;99.90
34550;DHT22;66080;52.078;5.626;2023-07-31T13:43:58;19.00;99.90
34550;DHT22;66080;52.078;5.626;2023-07-31T13:46:24;18.90;99.90
34550;DHT22;66080;52.078;5.626;2023-07-31T13:48:51;18.90;99.90
34550;DHT22;66080;52.078;5.626;2023-07-31T13:51:16;18.80;99.90
34550;DHT22;66080;52.078;5.626;2023-07-31T13:53:42;18.80;99.90
34550;DHT22;66080;52.078;5.626;2023-07-31T13:56:07;18.80;99.90
34550;DHT22;66080;52.078;5.626;2023-07-31T13:58:33;18.70;99.90
34550;DHT22;66080;52.078;5.626;2023-07-31T14:00:59;18.70;99.90
34550;DHT22;66080;52.078;5.626;2023-07-31T14:03:24;18.60;99.90
34550;DHT22;66080;52.078;5.626;2023-07-31T14:05:51;18.60;99.90
34550;DHT22;66080;52.078;5.626;2023-07-31T14:08:17;18.50;99.90
34550;DHT22;66080;52.078;5.626;2023-07-31T14:10:43;18.50;99.90
34550;DHT22;66080;52.078;5.626;2023-07-31T14:13:08;18.50;99.90
34550;DHT22;66080;52.078;5.626;2023-07-31T14:15:34;18.60;99.90
34550;DHT22;66080;52.078;5.626;2023-07-31T14:18:01;18.50;99.90
34550;DHT22;66080;52.078;5.626;2023-07-31T14:20:27;18.40;99.90
34550;DHT22;66080;52.078;5.626;2023-07-31T14:22:53;18.40;99.90
34550;DHT22;66080;52.078;5.626;2023-07-31T14:25:18;18.40;99.90
34550;DHT22;66080;52.078;5.626;2023-07-31T14:27:44;18.40;99.90
34550;DHT22;66080;52.078;5.626;2023-07-31T14:30:09;18.40;99.90
34550;DHT22;66080;52.078;5.626;2023-07-31T14:32:35;18.20;99.90
34550;DHT22;66080;52.078;5.626;2023-07-31T14:35:02;18.30;99.90
34550;DHT22;66080;52.078;5.626;2023-07-31T14:37:39;18.30;99.90
34550;DHT22;66080;52.078;5.626;2023-07-31T14:40:06;18.30;99.90
34550;DHT22;66080;52.078;5.626;2023-07-31T14:42:32;18.30;99.90
34550;DHT22;66080;52.078;5.626;2023-07-31T14:44:57;18.30;99.90
34550;DHT22;66080;52.078;5.626;2023-07-31T14:47:23;18.20;99.90
34550;DHT22;66080;52.078;5.626;2023-07-31T14:49:48;18.20;99.90
34550;DHT22;66080;52.078;5.626;2023-07-31T14:52:14;18.20;99.90
34550;DHT22;66080;52.078;5.626;2023-07-31T14:54:40;18.20;99.90
34550;DHT22;66080;52.078;5.626;2023-07-31T14:57:06;18.20;99.90
34550;DHT22;66080;52.078;5.626;2023-07-31T14:59:31;18.20;99.90
34550;DHT22;66080;52.078;5.626;2023-07-31T15:01:57;18.20;99.90
34550;DHT22;66080;52.078;5.626;2023-07-31T15:04:22;18.20;99.90
34550;DHT22;66080;52.078;5.626;2023-07-31T15:06:51;18.20;99.90
34550;DHT22;66080;52.078;5.626;2023-07-31T15:09:17;18.20;99.90
34550;DHT22;66080;52.078;5.626;2023-07-31T15:11:42;18.40;99.90
34550;DHT22;66080;52.078;5.626;2023-07-31T15:14:08;18.30;99.90
34550;DHT22;66080;52.078;5.626;2023-07-31T15:16:33;18.30;99.90
34550;DHT22;66080;52.078;5.626;2023-07-31T15:18:59;18.30;99.90
34550;DHT22;66080;52.078;5.626;2023-07-31T15:21:25;18.20;99.90
34550;DHT22;66080;52.078;5.626;2023-07-31T15:23:51;18.20;99.90
34550;DHT22;66080;52.078;5.626;2023-07-31T15:26:16;18.30;99.90
34550;DHT22;66080;52.078;5.626;2023-07-31T15:28:42;18.30;99.90
34550;DHT22;66080;52.078;5.626;2023-07-31T15:31:08;18.30;99.90
34550;DHT22;66080;52.078;5.626;2023-07-31T15:33:33;18.30;99.90
34550;DHT22;66080;52.078;5.626;2023-07-31T15:35:59;18.20;99.90
34550;DHT22;66080;52.078;5.626;2023-07-31T15:38:24;18.20;99.90
34550;DHT22;66080;52.078;5.626;2023-07-31T15:40:50;18.20;99.90